Time;durP1;ratioP1;P1;durP2;ratioP2;P2;SDS_P1;SDS_P2;PMS_P1;PMS_P2;Temp;Humidity;BMP_temperature;BMP_pressure;BME280_temperature;BME280_humidity;BME280_pressure;Samples;Min_cycle;Max_cycle;Signal;HPM_P1;HPM_P2
2021/11/01 00:00:45;;;;;;;40.15;21.52;;;;;;;3.74;88.48;100868.27;1784204;79;21343;-75
2021/11/01 00:03:51;;;;;;;32.03;18.48;;;;;;;3.71;88.73;100872.06;1776571;81;21287;-75
2021/11/01 00:06:56;;;;;;;36.33;19.32;;;;;;;3.70;88.95;100866.28;1776457;81;21286;-75
2021/11/01 00:10:01;;;;;;;35.85;21.20;;;;;;;3.71;89.16;100869.35;1776591;81;21283;-75
2021/11/01 00:13:07;;;;;;;36.30;20.20;;;;;;;3.70;89.35;100861.37;1776453;81;21334;-75
2021/11/01 00:16:12;;;;;;;38.60;19.92;;;;;;;3.66;89.44;100853.97;1775284;81;21834;-76
2021/11/01 00:19:17;;;;;;;32.73;19.95;;;;;;;3.65;89.53;100853.61;1775188;81;21180;-76
2021/11/01 00:22:23;;;;;;;33.23;19.30;;;;;;;3.62;89.89;100847.06;1774947;81;21207;-76
2021/11/01 00:25:28;;;;;;;38.00;21.12;;;;;;;3.62;89.93;100851.13;1776711;81;21290;-75
2021/11/01 00:28:35;;;;;;;34.65;21.20;;;;;;;3.59;89.97;100854.09;1776712;81;21889;-76
2021/11/01 00:31:40;;;;;;;37.80;20.05;;;;;;;3.55;89.93;100852.59;1775688;81;21337;-76
2021/11/01 00:34:46;;;;;;;35.83;21.77;;;;;;;3.52;89.92;100852.82;1776582;81;21767;-76
2021/11/01 00:37:51;;;;;;;32.50;20.45;;;;;;;3.48;90.13;100845.92;1776528;81;21274;-76
2021/11/01 00:40:57;;;;;;;32.70;19.45;;;;;;;3.46;90.32;100843.84;1776596;81;21330;-76
2021/11/01 00:44:03;;;;;;;31.23;18.65;;;;;;;3.43;90.65;100846.27;1776575;81;21172;-75
2021/11/01 00:47:11;;;;;;;39.48;20.95;;;;;;;3.41;90.76;100844.68;1776140;81;21941;-75
2021/11/01 00:50:16;;;;;;;36.28;21.87;;;;;;;3.40;90.92;100838.41;1775134;81;21283;-76
2021/11/01 00:53:28;;;;;;;30.62;19.05;;;;;;;3.37;90.89;100837.28;1776552;81;21318;-76
2021/11/01 00:56:29;;;;;;;35.75;19.30;;;;;;;3.33;90.82;100835.30;1776587;81;21731;-76
2021/11/01 00:59:35;;;;;;;38.28;21.73;;;;;;;3.31;90.85;100836.41;1776572;81;21478;-76
2021/11/01 01:02:41;;;;;;;31.73;19.62;;;;;;;3.27;90.84;100827.66;1778072;80;21726;-75
2021/11/01 01:05:49;;;;;;;29.87;18.67;;;;;;;3.23;90.68;100831.58;1784881;80;21853;-75
2021/11/01 01:08:55;;;;;;;37.58;22.37;;;;;;;3.14;90.64;100828.22;1784832;80;21326;-76
2021/11/01 01:12:01;;;;;;;36.50;22.15;;;;;;;3.09;90.87;100820.95;1784318;80;21193;-75
2021/11/01 01:15:09;;;;;;;47.50;24.20;;;;;;;3.06;91.22;100823.91;1784864;80;21839;-75
2021/11/01 01:18:20;;;;;;;34.43;20.65;;;;;;;3.04;91.60;100812.33;1783997;80;21367;-76
2021/11/01 01:24:48;;;;;;;38.23;23.25;;;;;;;2.94;91.85;100809.45;1784940;80;21330;-75
2021/11/01 01:27:54;;;;;;;41.42;23.98;;;;;;;2.87;92.17;100808.20;1784813;80;21304;-76
2021/11/01 01:31:01;;;;;;;39.60;23.92;;;;;;;2.83;92.55;100803.14;1783260;80;21307;-76
2021/11/01 01:34:06;;;;;;;41.85;24.32;;;;;;;2.77;92.87;100797.69;1784549;80;21244;-76
2021/11/01 01:37:12;;;;;;;44.77;22.67;;;;;;;2.71;93.12;100793.61;1784842;80;21288;-76
2021/11/01 01:40:17;;;;;;;42.00;22.55;;;;;;;2.66;93.46;100794.94;1784702;80;21181;-76
2021/11/01 01:43:23;;;;;;;41.13;23.80;;;;;;;2.64;93.82;100795.06;1783282;80;21859;-76
2021/11/01 01:46:29;;;;;;;44.33;25.48;;;;;;;2.62;94.15;100793.43;1784886;80;21180;-75
2021/11/01 01:49:34;;;;;;;45.33;25.15;;;;;;;2.61;94.31;100800.67;1784674;80;21181;-75
2021/11/01 01:52:41;;;;;;;40.98;25.15;;;;;;;2.56;94.50;100795.61;1784069;80;21332;-75
2021/11/01 01:55:47;;;;;;;42.10;25.15;;;;;;;2.55;94.74;100793.03;1784332;80;21212;-76
2021/11/01 01:59:01;;;;;;;42.83;24.92;;;;;;;2.54;94.96;100796.69;1784654;80;21295;-76
2021/11/01 02:02:06;;;;;;;42.43;23.02;;;;;;;2.54;95.08;100800.73;1785450;80;21317;-75
2021/11/01 02:05:13;;;;;;;41.02;24.92;;;;;;;2.52;95.29;100797.30;1783677;80;21331;-76
2021/11/01 02:08:20;;;;;;;41.20;23.30;;;;;;;2.54;95.68;100807.48;1784747;80;21189;-75
2021/11/01 02:11:29;;;;;;;42.90;25.05;;;;;;;2.53;95.89;100806.63;1784788;80;21295;-76
2021/11/01 02:14:47;;;;;;;44.05;27.02;;;;;;;2.55;96.15;100798.44;1785378;80;21883;-75
2021/11/01 02:17:56;;;;;;;40.52;23.45;;;;;;;2.56;96.34;100802.86;1783310;80;21844;-75
2021/11/01 02:21:12;;;;;;;44.90;27.60;;;;;;;2.56;96.40;100798.80;1785179;80;21633;-75
2021/11/01 02:24:40;;;;;;;39.90;24.95;;;;;;;2.52;96.35;100795.45;1784798;80;21811;-75
2021/11/01 02:27:46;;;;;;;37.88;23.77;;;;;;;2.48;96.15;100798.50;1784811;80;21229;-75
2021/11/01 02:30:45;;;;;;;44.18;25.30;;;;;;;2.43;95.90;100793.44;1784890;80;21284;-75
2021/11/01 02:33:37;;;;;;;43.90;24.45;;;;;;;2.39;95.83;100791.06;1783762;80;21927;-75
2021/11/01 02:36:43;;;;;;;53.95;29.90;;;;;;;2.34;95.77;100790.55;1784710;80;21184;-75
2021/11/01 02:39:58;;;;;;;54.48;29.25;;;;;;;2.29;95.81;100796.28;1784876;80;21299;-75
2021/11/01 02:43:04;;;;;;;48.30;28.73;;;;;;;2.23;95.93;100786.80;1784168;80;21821;-75
2021/11/01 02:46:10;;;;;;;42.78;25.12;;;;;;;2.19;96.11;100789.34;1784831;80;22541;-75
2021/11/01 02:49:15;;;;;;;43.05;25.55;;;;;;;2.16;96.26;100785.50;1751578;80;21310;-75
2021/11/01 02:52:20;;;;;;;45.03;25.27;;;;;;;2.14;96.36;100780.72;1784738;80;21173;-75
2021/11/01 02:55:26;;;;;;;41.23;25.88;;;;;;;2.11;96.53;100780.92;1784910;80;21288;-75
2021/11/01 02:58:27;;;;;;;44.42;25.88;;;;;;;2.09;96.66;100773.44;1784819;80;21192;-75
2021/11/01 03:01:33;;;;;;;51.53;29.02;;;;;;;2.08;96.79;100775.77;1783658;79;21358;-75
2021/11/01 03:04:39;;;;;;;35.68;21.57;;;;;;;2.07;97.06;100774.51;1780935;80;21972;-75
2021/11/01 03:07:45;;;;;;;38.42;24.32;;;;;;;2.07;97.20;100773.16;1772081;81;21280;-75
2021/11/01 03:10:52;;;;;;;45.83;24.45;;;;;;;2.07;97.41;100774.51;1771077;81;21293;-75
2021/11/01 03:13:58;;;;;;;34.53;21.87;;;;;;;2.08;97.64;100770.86;1770448;81;21300;-75
2021/11/01 03:17:06;;;;;;;50.00;23.07;;;;;;;2.10;97.88;100769.77;1769450;81;21839;-75
2021/11/01 03:20:15;;;;;;;41.02;23.02;;;;;;;2.11;98.12;100761.17;1770560;81;21926;-75
2021/11/01 03:23:36;;;;;;;40.92;25.15;;;;;;;2.12;98.27;100758.84;1771106;81;21673;-75
2021/11/01 03:26:40;;;;;;;37.70;22.05;;;;;;;2.11;98.52;100756.63;1771344;81;21357;-75
2021/11/01 03:29:45;;;;;;;38.00;23.38;;;;;;;2.13;98.78;100754.70;1771214;81;21224;-75
2021/11/01 03:32:51;;;;;;;45.60;27.13;;;;;;;2.15;98.99;100759.49;1743928;81;21815;-75
2021/11/01 03:35:57;;;;;;;49.23;27.67;;;;;;;2.15;99.17;100759.49;1770677;81;21355;-75
2021/11/01 03:39:04;;;;;;;42.55;23.27;;;;;;;2.14;99.26;100749.67;1771166;81;21289;-75
2021/11/01 03:42:10;;;;;;;43.42;23.52;;;;;;;2.14;99.24;100749.67;1771198;81;21341;-75
2021/11/01 03:45:17;;;;;;;40.08;25.32;;;;;;;2.12;99.16;100746.24;1769747;81;21857;-75
2021/11/01 03:48:23;;;;;;;52.73;27.77;;;;;;;2.09;99.17;100747.80;1771329;81;21832;-75
2021/11/01 03:51:45;;;;;;;46.28;25.72;;;;;;;2.05;99.33;100744.45;1769662;81;21201;-75
2021/11/01 03:54:48;;;;;;;49.93;27.65;;;;;;;2.05;99.47;100743.11;1770177;81;21299;-75
2021/11/01 03:57:54;;;;;;;45.43;26.90;;;;;;;2.05;99.60;100734.16;1771140;81;21206;-75
2021/11/01 04:01:00;;;;;;;43.75;27.65;;;;;;;2.03;99.78;100729.38;1770518;79;21323;-75
2021/11/01 04:04:05;;;;;;;50.12;28.17;;;;;;;2.02;99.89;100733.02;1770576;81;21323;-74
2021/11/01 04:07:10;;;;;;;45.75;27.77;;;;;;;2.00;100.00;100732.28;1780652;80;21799;-74
2021/11/01 04:10:17;;;;;;;44.48;26.87;;;;;;;1.99;100.00;100735.95;1784852;80;21165;-74
2021/11/01 04:13:23;;;;;;;46.60;27.20;;;;;;;1.96;100.00;100728.07;1784833;80;21157;-75
2021/11/01 04:16:48;;;;;;;41.90;25.50;;;;;;;1.93;100.00;100729.17;1785009;80;21299;-76
2021/11/01 04:19:47;;;;;;;50.10;27.30;;;;;;;1.94;100.00;100727.34;1785515;80;21827;-75
2021/11/01 04:22:48;;;;;;;44.42;24.70;;;;;;;1.94;100.00;100728.69;1784834;80;21129;-76
2021/11/01 04:25:52;;;;;;;49.25;28.23;;;;;;;1.92;100.00;100730.12;1783522;80;21323;-75
2021/11/01 04:29:00;;;;;;;45.43;27.15;;;;;;;1.94;100.00;100734.08;1785366;80;21580;-75
2021/11/01 04:32:17;;;;;;;50.65;28.20;;;;;;;1.93;100.00;100725.13;1784865;80;21292;-76
2021/11/01 04:35:22;;;;;;;46.13;27.80;;;;;;;1.94;100.00;100724.15;1784060;80;21212;-75
2021/11/01 04:38:58;;;;;;;44.88;24.23;;;;;;;1.93;100.00;100718.38;1785370;80;21644;-75
2021/11/01 04:54:54;;;;;;;53.73;29.25;;;;;;;2.04;100.00;100729.25;1784359;80;21338;-75
2021/11/01 04:57:59;;;;;;;41.85;23.80;;;;;;;2.04;100.00;100724.34;1784865;80;21303;-76
2021/11/01 05:01:05;;;;;;;49.42;30.65;;;;;;;2.05;100.00;100719.31;1783295;79;21342;-76
2021/11/01 05:04:17;;;;;;;46.23;26.17;;;;;;;2.06;100.00;100721.03;1783395;80;21252;-75
2021/11/01 05:07:18;;;;;;;58.55;31.07;;;;;;;2.07;100.00;100732.68;1783164;80;21197;-76
2021/11/01 05:10:50;;;;;;;58.00;33.05;;;;;;;2.10;100.00;100725.72;1784919;80;21284;-75
2021/11/01 05:13:33;;;;;;;47.73;27.37;;;;;;;2.12;100.00;100723.77;1784943;80;21292;-76
2021/11/01 05:16:51;;;;;;;53.65;31.60;;;;;;;2.14;100.00;100719.98;1783504;80;21208;-75
2021/11/01 05:19:54;;;;;;;55.78;32.88;;;;;;;2.18;100.00;100719.28;1784704;80;21807;-75
2021/11/01 05:23:04;;;;;;;48.52;30.27;;;;;;;2.20;100.00;100726.28;1783323;80;21177;-76
2021/11/01 05:26:05;;;;;;;49.00;25.08;;;;;;;2.25;100.00;100724.59;1783865;80;21354;-75
2021/11/01 05:29:09;;;;;;;48.60;30.15;;;;;;;2.30;100.00;100725.11;1784781;80;21342;-76
2021/11/01 05:32:22;;;;;;;54.50;28.95;;;;;;;2.39;100.00;100724.43;1784836;80;21308;-75
2021/11/01 05:35:22;;;;;;;59.95;28.52;;;;;;;2.47;100.00;100713.08;1784221;80;21732;-76
2021/11/01 05:38:27;;;;;;;53.35;31.95;;;;;;;2.57;100.00;100728.95;1784825;80;21165;-76
2021/11/01 05:41:33;;;;;;;57.78;29.95;;;;;;;2.68;100.00;100722.73;1784654;80;21819;-76
2021/11/01 05:44:39;;;;;;;48.48;29.30;;;;;;;2.80;100.00;100724.03;1782325;80;21286;-76
2021/11/01 05:47:51;;;;;;;55.85;30.65;;;;;;;2.94;100.00;100728.87;1752014;82;21819;-76
2021/11/01 05:50:53;;;;;;;57.70;32.20;;;;;;;3.06;100.00;100729.30;1752160;82;21307;-75
2021/11/01 05:54:02;;;;;;;39.45;24.77;;;;;;;3.19;100.00;100726.49;1755389;80;21177;-75
2021/11/01 05:57:14;;;;;;;57.45;30.02;;;;;;;3.29;100.00;100731.09;1768960;80;21680;-75
2021/11/01 06:03:38;;;;;;;53.20;30.70;;;;;;;3.54;100.00;100731.37;1768840;80;21280;-75
2021/11/01 06:10:08;;;;;;;41.37;24.90;;;;;;;3.77;100.00;100719.22;1757382;81;21284;-76
2021/11/01 06:16:18;;;;;;;42.27;24.95;;;;;;;4.00;100.00;100729.52;1752438;81;21314;-75
2021/11/01 06:19:23;;;;;;;45.08;27.40;;;;;;;4.15;100.00;100727.44;1761704;81;21620;-76
2021/11/01 06:22:28;;;;;;;40.75;25.08;;;;;;;4.28;100.00;100722.72;1760502;81;21279;-76
2021/11/01 06:25:34;;;;;;;46.70;28.17;;;;;;;4.43;100.00;100726.04;1760901;80;21334;-76
2021/11/01 06:28:43;;;;;;;51.02;25.27;;;;;;;4.55;100.00;100724.51;1759332;79;21197;-76
2021/11/01 06:31:58;;;;;;;46.28;26.70;;;;;;;4.66;100.00;100727.70;1760608;79;21354;-76
2021/11/01 06:55:21;;;;;;;52.73;24.72;;;;;;;5.41;100.00;100714.52;1764886;79;21279;-77
2021/11/01 07:15:24;;;;;;;38.02;21.30;;;;;;;5.83;100.00;100686.81;1773868;79;21165;-76
2021/11/01 07:18:35;;;;;;;43.23;23.95;;;;;;;5.92;100.00;100688.36;1772347;79;21141;-76
2021/11/01 07:21:53;;;;;;;48.35;25.88;;;;;;;5.97;100.00;100682.02;1777694;79;21275;-77
2021/11/01 08:25:49;;;;;;;27.62;17.98;;;;;;;6.99;99.25;100673.94;1770624;79;21284;-77
2021/11/01 08:39:02;;;;;;;27.77;18.15;;;;;;;7.08;97.56;100670.85;1778536;79;21190;-76
2021/11/01 09:05:07;;;;;;;33.18;20.08;;;;;;;7.63;92.01;100643.80;1781406;79;21299;-76
2021/11/01 09:08:05;;;;;;;32.15;17.77;;;;;;;7.67;91.38;100652.02;1778345;79;21937;-76
2021/11/01 09:21:31;;;;;;;32.33;18.77;;;;;;;7.76;90.39;100623.86;1770154;79;21371;-76
2021/11/01 09:24:39;;;;;;;32.05;19.80;;;;;;;7.80;90.46;100621.20;1768723;79;21334;-75
2021/11/01 09:27:42;;;;;;;35.98;23.30;;;;;;;7.85;90.36;100624.33;1770635;79;21248;-75
2021/11/01 09:37:59;;;;;;;28.70;17.42;;;;;;;8.01;90.60;100586.05;1767461;79;21295;-75
2021/11/01 09:41:08;;;;;;;27.58;17.40;;;;;;;8.12;90.39;100580.38;1771441;79;21236;-76
2021/11/01 09:44:16;;;;;;;30.57;18.07;;;;;;;8.23;90.09;100574.69;1756647;79;21311;-76
2021/11/01 09:47:20;;;;;;;30.08;18.45;;;;;;;8.36;89.95;100562.05;1770975;79;21277;-77
2021/11/01 09:50:29;;;;;;;25.02;14.93;;;;;;;8.51;89.47;100543.30;1752181;79;21272;-77
2021/11/01 09:53:39;;;;;;;24.20;15.95;;;;;;;8.63;88.55;100546.14;1769756;79;21527;-77
2021/11/01 09:56:48;;;;;;;32.73;17.42;;;;;;;8.73;87.74;100542.81;1766939;79;21409;-77
2021/11/01 09:59:51;;;;;;;26.25;15.55;;;;;;;8.85;87.17;100539.33;1779220;79;21554;-77
2021/11/01 10:02:59;;;;;;;36.88;17.15;;;;;;;8.97;86.78;100529.84;1767406;79;21291;-77
2021/11/01 10:06:05;;;;;;;29.65;16.90;;;;;;;9.06;85.76;100523.94;1773333;79;21629;-77
2021/11/01 10:09:13;;;;;;;26.68;16.12;;;;;;;9.15;84.90;100513.42;1771010;80;21892;-76
2021/11/01 10:12:42;;;;;;;31.55;15.23;;;;;;;9.25;84.71;100518.25;1755682;79;21315;-77
2021/11/01 10:19:14;;;;;;;22.48;13.35;;;;;;;9.40;82.70;100507.05;1773352;79;21616;-77
2021/11/01 10:22:24;;;;;;;24.82;15.10;;;;;;;9.53;82.52;100502.50;1779194;79;21209;-77
2021/11/01 10:25:30;;;;;;;23.47;14.33;;;;;;;9.63;81.79;100499.63;1774333;79;21303;-77
2021/11/01 10:28:38;;;;;;;22.62;13.22;;;;;;;9.69;81.69;100487.55;1777624;79;21275;-77
2021/11/01 10:31:52;;;;;;;19.05;13.68;;;;;;;9.79;81.54;100484.67;1774407;79;21798;-77
2021/11/01 10:34:58;;;;;;;23.57;13.43;;;;;;;9.94;80.89;100485.72;1776846;79;21500;-77
2021/11/01 10:38:24;;;;;;;21.85;13.38;;;;;;;10.04;80.25;100486.08;1769735;79;21176;-77
2021/11/01 10:41:32;;;;;;;19.07;12.98;;;;;;;10.09;80.02;100478.23;1779480;79;21220;-77
2021/11/01 10:45:07;;;;;;;23.25;14.28;;;;;;;10.17;80.21;100477.73;1777694;79;21330;-76
2021/11/01 10:56:47;;;;;;;19.65;12.90;;;;;;;10.33;79.95;100474.69;1771761;79;21819;-77
2021/11/01 11:49:58;;;;;;;16.07;9.38;;;;;;;11.67;72.85;100436.52;1765203;79;21708;-76
2021/11/01 11:53:04;;;;;;;20.45;10.15;;;;;;;11.73;72.85;100431.67;1744308;81;21272;-76
2021/11/01 11:56:14;;;;;;;25.95;11.10;;;;;;;11.80;72.61;100415.34;1746840;81;21602;-76
2021/11/01 11:59:19;;;;;;;16.48;11.08;;;;;;;11.89;72.16;100423.36;1750427;81;21911;-75
2021/11/01 12:02:39;;;;;;;15.58;9.98;;;;;;;11.91;71.77;100415.82;1761963;81;21225;-76
2021/11/01 12:06:00;;;;;;;14.63;9.23;;;;;;;11.94;71.91;100413.21;1730619;81;21276;-76
2021/11/01 12:09:20;;;;;;;17.50;11.35;;;;;;;11.98;71.91;100415.41;1752762;81;21320;-76
2021/11/01 12:12:53;;;;;;;18.60;11.15;;;;;;;12.01;72.02;100410.09;1740207;82;21188;-76
2021/11/01 12:19:10;;;;;;;16.35;10.55;;;;;;;12.11;71.75;100407.95;1767283;81;21307;-76
2021/11/01 12:22:19;;;;;;;18.17;10.53;;;;;;;12.12;71.87;100404.69;1770680;79;21267;-76
2021/11/01 12:25:29;;;;;;;18.75;10.55;;;;;;;12.14;71.95;100395.25;1750806;79;21126;-76
2021/11/01 12:28:36;;;;;;;17.98;10.68;;;;;;;12.22;71.72;100390.20;1752161;81;21292;-76
2021/11/01 12:31:43;;;;;;;15.30;9.83;;;;;;;12.27;71.46;100397.34;1756812;81;21243;-76
2021/11/01 12:35:07;;;;;;;21.12;10.72;;;;;;;12.30;71.19;100402.47;1738328;81;21161;-76
2021/11/01 12:38:14;;;;;;;18.98;9.43;;;;;;;12.33;71.16;100395.26;1752591;81;21875;-76
2021/11/01 12:57:59;;;;;;;19.55;8.35;;;;;;;12.42;70.49;100372.20;1767059;80;21194;-75
2021/11/01 13:01:16;;;;;;;15.80;8.58;;;;;;;12.40;70.52;100373.41;1703555;83;21660;-75
2021/11/01 13:04:41;;;;;;;12.18;8.05;;;;;;;12.38;70.59;100387.32;1741945;81;21173;-77
2021/11/01 13:08:12;;;;;;;12.90;8.75;;;;;;;12.36;70.50;100373.44;1694211;83;21595;-75
2021/11/01 13:10:58;;;;;;;16.00;9.08;;;;;;;12.36;70.52;100374.30;1717404;83;21326;-75
2021/11/01 13:21:01;;;;;;;25.82;11.40;;;;;;;12.25;70.84;100363.78;1755171;81;21831;-75
2021/11/01 13:24:06;;;;;;;15.48;8.83;;;;;;;12.20;71.02;100361.59;1761437;79;21263;-75
2021/11/01 13:27:16;;;;;;;12.28;7.53;;;;;;;12.14;71.21;100364.21;1705132;83;21295;-75
2021/11/01 13:37:25;;;;;;;13.35;7.85;;;;;;;11.92;72.68;100353.62;1767980;81;21892;-75
2021/11/01 13:40:29;;;;;;;15.80;10.55;;;;;;;11.84;72.92;100350.42;1745540;79;21962;-75
2021/11/01 13:43:38;;;;;;;23.87;10.98;;;;;;;11.78;73.32;100356.09;1768145;81;21283;-75
2021/11/01 13:46:51;;;;;;;34.23;15.70;;;;;;;11.73;73.61;100361.27;1776063;79;21856;-75
2021/11/01 13:49:57;;;;;;;29.63;16.57;;;;;;;11.68;73.89;100366.45;1744039;81;21185;-75
2021/11/01 13:53:14;;;;;;;39.27;16.57;;;;;;;11.63;74.12;100352.97;1757489;80;21581;-76
2021/11/01 13:56:29;;;;;;;35.43;16.97;;;;;;;11.56;74.47;100354.72;1760540;81;21787;-75
2021/11/01 13:59:52;;;;;;;37.40;18.67;;;;;;;11.48;74.67;100349.64;1746738;81;21280;-75
2021/11/01 14:16:26;;;;;;;30.23;16.20;;;;;;;11.02;76.44;100332.28;1750889;81;21165;-75
2021/11/01 14:36:56;;;;;;;40.63;19.10;;;;;;;10.64;78.46;100345.77;1739014;82;21202;-75
2021/11/01 15:13:23;;;;;;;54.65;24.47;;;;;;;9.86;80.83;100320.92;1737181;82;21874;-75
2021/11/01 15:38:59;;;;;;;56.58;25.20;;;;;;;9.53;81.80;100326.89;1738177;82;21297;-75
2021/11/01 16:19:09;;;;;;;30.40;15.75;;;;;;;9.52;81.83;100317.00;1740738;82;21288;-77
2021/11/01 16:22:23;;;;;;;28.77;15.70;;;;;;;9.50;81.81;100319.88;1740455;82;21338;-77
2021/11/01 16:25:29;;;;;;;38.00;16.65;;;;;;;9.51;81.83;100315.30;1740407;82;21811;-75
2021/11/01 16:28:42;;;;;;;24.40;15.15;;;;;;;9.52;81.90;100315.13;1740382;82;21299;-75
2021/11/01 16:31:55;;;;;;;36.77;16.73;;;;;;;9.52;81.80;100318.37;1739652;82;21205;-75
2021/11/01 16:35:03;;;;;;;30.95;16.82;;;;;;;9.51;81.76;100305.23;1738897;82;21241;-75
2021/11/01 16:38:13;;;;;;;30.50;15.98;;;;;;;9.53;81.71;100306.41;1741430;82;21165;-75
2021/11/01 16:41:38;;;;;;;33.20;17.32;;;;;;;9.54;81.64;100301.29;1741184;82;21146;-76
2021/11/01 16:44:47;;;;;;;31.62;19.70;;;;;;;9.54;81.59;100295.83;1739185;82;21307;-75
2021/11/01 16:47:54;;;;;;;31.33;17.67;;;;;;;9.55;81.56;100297.53;1739905;82;21327;-75
2021/11/01 16:51:02;;;;;;;40.35;23.22;;;;;;;9.56;81.46;100293.28;1739660;82;21343;-76
2021/11/01 16:54:19;;;;;;;36.70;21.00;;;;;;;9.60;81.41;100302.00;1739855;82;21903;-75
2021/11/01 16:57:36;;;;;;;40.73;21.10;;;;;;;9.63;81.29;100305.73;1737923;81;21828;-76
2021/11/01 17:01:00;;;;;;;53.42;25.35;;;;;;;9.65;81.21;100302.34;1737225;81;21327;-75
2021/11/01 17:03:53;;;;;;;53.38;30.55;;;;;;;9.65;81.23;100300.45;1739624;81;21171;-76
2021/11/01 17:07:11;;;;;;;65.78;32.28;;;;;;;9.65;81.22;100294.14;1739136;82;21843;-75
2021/11/01 17:37:33;;;;;;;41.30;25.00;;;;;;;9.60;81.88;100271.95;1739496;82;21185;-75
2021/11/01 18:39:06;;;;;;;32.63;19.77;;;;;;;9.73;83.52;100219.86;1728330;83;21315;-76
2021/11/01 18:52:18;;;;;;;39.50;21.75;;;;;;;9.64;85.29;100213.21;1734142;82;21330;-76
2021/11/01 18:55:23;;;;;;;33.95;18.90;;;;;;;9.59;85.73;100216.46;1731233;83;21855;-76
2021/11/01 18:58:34;;;;;;;27.25;18.25;;;;;;;9.58;86.05;100222.95;1730869;82;21374;-76
2021/11/01 19:01:43;;;;;;;34.43;20.97;;;;;;;9.56;86.40;100223.66;1735595;82;21342;-76
2021/11/01 19:05:11;;;;;;;30.77;18.02;;;;;;;9.54;86.58;100219.38;1736395;82;21200;-76
2021/11/01 19:15:41;;;;;;;33.55;20.25;;;;;;;9.50;87.03;100228.41;1734557;82;21913;-76
2021/11/01 20:05:48;;;;;;;36.38;21.15;;;;;;;9.07;92.27;100192.76;1689618;83;21906;-75
2021/11/01 20:12:41;;;;;;;32.80;20.62;;;;;;;9.05;92.67;100197.03;1734264;82;21342;-75
2021/11/01 21:27:16;;;;;;;41.73;24.47;;;;;;;8.74;97.12;100099.99;1731081;83;21843;-75
2021/11/01 21:30:22;;;;;;;39.05;22.40;;;;;;;8.74;97.49;100091.81;1731687;83;21189;-75
2021/11/01 21:33:31;;;;;;;50.10;25.00;;;;;;;8.74;97.77;100091.81;1731626;83;21371;-75
2021/11/01 21:36:35;;;;;;;43.15;25.80;;;;;;;8.73;97.86;100079.20;1730709;83;21181;-75
2021/11/01 21:39:41;;;;;;;45.38;28.25;;;;;;;8.74;97.99;100089.60;1732045;82;21817;-75
2021/11/01 21:42:47;;;;;;;43.55;26.00;;;;;;;8.74;98.23;100082.27;1731680;83;21304;-75
2021/11/01 21:45:54;;;;;;;37.40;25.32;;;;;;;8.73;98.60;100081.09;1731884;83;21299;-75
2021/11/01 21:48:59;;;;;;;39.90;25.85;;;;;;;8.70;98.87;100069.99;1732128;82;21197;-75
2021/11/01 21:52:05;;;;;;;43.90;26.37;;;;;;;8.72;99.14;100079.39;1730677;83;21319;-75
2021/11/01 21:55:17;;;;;;;45.90;26.80;;;;;;;8.72;99.38;100072.57;1734153;82;21189;-75
2021/11/01 21:58:37;;;;;;;39.48;26.12;;;;;;;8.72;99.80;100066.60;1730300;82;21318;-76
2021/11/01 22:09:39;;;;;;;45.10;25.80;;;;;;;8.73;100.00;100067.45;1731565;81;21319;-75
2021/11/01 22:18:30;;;;;;;43.25;24.02;;;;;;;8.71;100.00;100043.09;1732687;82;21331;-75
2021/11/01 22:21:33;;;;;;;35.80;21.82;;;;;;;8.70;100.00;100037.27;1730457;82;21216;-75
2021/11/01 22:24:53;;;;;;;41.60;24.35;;;;;;;8.70;100.00;100037.27;1731624;82;21851;-75
2021/11/01 22:34:21;;;;;;;49.18;26.27;;;;;;;8.64;100.00;100022.97;1730683;82;21930;-75
2021/11/01 22:47:43;;;;;;;47.10;26.27;;;;;;;8.55;100.00;99998.09;1731405;83;21807;-74
2021/11/01 22:57:04;;;;;;;38.15;25.27;;;;;;;8.48;100.00;99982.09;1731464;82;21224;-75
2021/11/01 23:00:17;;;;;;;40.78;25.77;;;;;;;8.48;100.00;99985.67;1732199;83;21931;-75
2021/11/01 23:03:24;;;;;;;48.45;27.93;;;;;;;8.49;100.00;99977.83;1732720;81;21307;-75
2021/11/01 23:33:38;;;;;;;49.13;28.73;;;;;;;8.58;100.00;99974.07;1732645;82;21226;-75
2021/11/01 23:36:44;;;;;;;44.90;26.87;;;;;;;8.62;100.00;99970.50;1734118;82;21279;-76
2021/11/01 23:39:50;;;;;;;58.17;30.25;;;;;;;8.65;100.00;99955.14;1732927;82;21752;-76
2021/11/01 23:42:55;;;;;;;44.75;26.57;;;;;;;8.67;100.00;99946.29;1734092;82;21287;-76
2021/11/01 23:46:01;;;;;;;46.95;26.00;;;;;;;8.69;100.00;99949.16;1734104;82;21295;-76
2021/11/01 23:49:06;;;;;;;40.52;24.05;;;;;;;8.74;100.00;99950.53;1733448;82;21288;-76
2021/11/01 23:52:14;;;;;;;51.55;26.02;;;;;;;8.75;100.00;99944.92;1733975;82;21332;-76
2021/11/01 23:55:19;;;;;;;36.20;22.77;;;;;;;8.79;100.00;99947.61;1734173;82;21177;-76
2021/11/01 23:58:23;;;;;;;42.93;25.00;;;;;;;8.81;100.00;99946.09;1733803;82;21906;-76
